Terminal Aerodrome Forecast
Issued by NWS

Home | Current Version | Previous Version | Text Only | Print | Product List | Glossary On
Versions: 1 2 3 4 5 6 7 8 9 10 11 12 13 14 15 16 17 18 19 20 21 22 23 24 25 26
000
FTUS46 KSEW 280900 AAA
TAFSEA
TAF AMD
KSEA 280900Z 2809/2912 20018G25KT P6SM FEW008 SCT017 BKN022
      TEMPO 2809/2810 P6SM -SHRA SCT013 OVC022
     FM281000 22014G24KT P6SM -SHRA BKN018 OVC030
     FM282000 22010G16KT P6SM VCSH SCT018 BKN035 BKN060
     FM290400 16004KT P6SM SCT045 BKN080 OVC180=

USA.gov is the U.S. government's official web portal to all federal, state and local government web resources and services.